sensor_id;sensor_type;location;lat;lon;timestamp;P1;durP1;ratioP1;P2;durP2;ratioP2
3321;SDS011;1673;51.388;7.086;2022-10-16T00:01:56;6.68;;;2.60;;
3321;SDS011;1673;51.388;7.086;2022-10-16T00:04:26;6.30;;;2.95;;
3321;SDS011;1673;51.388;7.086;2022-10-16T00:06:55;5.10;;;2.80;;
3321;SDS011;1673;51.388;7.086;2022-10-16T00:09:27;7.95;;;2.95;;
3321;SDS011;1673;51.388;7.086;2022-10-16T00:11:57;8.77;;;3.00;;
3321;SDS011;1673;51.388;7.086;2022-10-16T00:14:26;6.72;;;2.60;;
3321;SDS011;1673;51.388;7.086;2022-10-16T00:16:56;5.10;;;2.80;;
3321;SDS011;1673;51.388;7.086;2022-10-16T00:19:26;5.85;;;2.75;;
3321;SDS011;1673;51.388;7.086;2022-10-16T00:21:55;5.55;;;2.60;;
3321;SDS011;1673;51.388;7.086;2022-10-16T00:24:27;5.00;;;2.53;;
3321;SDS011;1673;51.388;7.086;2022-10-16T00:26:57;6.53;;;2.30;;
3321;SDS011;1673;51.388;7.086;2022-10-16T00:29:27;5.97;;;2.40;;
3321;SDS011;1673;51.388;7.086;2022-10-16T00:31:56;6.28;;;2.00;;
3321;SDS011;1673;51.388;7.086;2022-10-16T00:34:26;3.58;;;2.20;;
3321;SDS011;1673;51.388;7.086;2022-10-16T00:36:55;5.53;;;2.45;;
3321;SDS011;1673;51.388;7.086;2022-10-16T00:39:28;6.80;;;2.17;;
3321;SDS011;1673;51.388;7.086;2022-10-16T00:41:57;7.50;;;1.95;;
3321;SDS011;1673;51.388;7.086;2022-10-16T00:44:44;5.43;;;2.00;;
3321;SDS011;1673;51.388;7.086;2022-10-16T00:47:17;3.72;;;2.00;;
3321;SDS011;1673;51.388;7.086;2022-10-16T00:49:50;4.33;;;2.03;;
3321;SDS011;1673;51.388;7.086;2022-10-16T00:52:21;7.20;;;2.13;;
3321;SDS011;1673;51.388;7.086;2022-10-16T00:54:53;4.50;;;2.00;;
3321;SDS011;1673;51.388;7.086;2022-10-16T00:57:23;4.78;;;2.08;;
3321;SDS011;1673;51.388;7.086;2022-10-16T00:59:53;5.70;;;2.50;;
3321;SDS011;1673;51.388;7.086;2022-10-16T01:02:23;4.72;;;2.40;;
3321;SDS011;1673;51.388;7.086;2022-10-16T01:04:53;3.30;;;1.80;;
3321;SDS011;1673;51.388;7.086;2022-10-16T01:07:26;7.50;;;2.10;;
3321;SDS011;1673;51.388;7.086;2022-10-16T01:10:07;5.30;;;2.10;;
3321;SDS011;1673;51.388;7.086;2022-10-16T01:12:45;3.88;;;1.73;;
3321;SDS011;1673;51.388;7.086;2022-10-16T01:15:17;4.15;;;1.85;;
3321;SDS011;1673;51.388;7.086;2022-10-16T01:17:52;7.70;;;2.00;;
3321;SDS011;1673;51.388;7.086;2022-10-16T01:20:25;3.77;;;1.90;;
3321;SDS011;1673;51.388;7.086;2022-10-16T01:22:59;3.47;;;1.63;;
3321;SDS011;1673;51.388;7.086;2022-10-16T01:25:39;6.72;;;1.92;;
3321;SDS011;1673;51.388;7.086;2022-10-16T01:28:27;5.75;;;2.00;;
3321;SDS011;1673;51.388;7.086;2022-10-16T01:31:00;3.65;;;1.90;;
3321;SDS011;1673;51.388;7.086;2022-10-16T01:33:32;5.00;;;1.83;;
3321;SDS011;1673;51.388;7.086;2022-10-16T01:36:06;4.97;;;2.00;;
3321;SDS011;1673;51.388;7.086;2022-10-16T01:38:39;5.03;;;2.00;;
3321;SDS011;1673;51.388;7.086;2022-10-16T01:41:09;5.90;;;2.08;;
3321;SDS011;1673;51.388;7.086;2022-10-16T01:43:43;5.78;;;2.60;;
3321;SDS011;1673;51.388;7.086;2022-10-16T01:46:16;7.97;;;2.58;;
3321;SDS011;1673;51.388;7.086;2022-10-16T01:48:47;5.18;;;2.50;;
3321;SDS011;1673;51.388;7.086;2022-10-16T01:51:18;5.30;;;2.53;;
3321;SDS011;1673;51.388;7.086;2022-10-16T01:53:49;4.32;;;2.45;;
3321;SDS011;1673;51.388;7.086;2022-10-16T01:56:21;7.10;;;2.40;;
3321;SDS011;1673;51.388;7.086;2022-10-16T01:58:55;4.65;;;2.50;;
3321;SDS011;1673;51.388;7.086;2022-10-16T02:01:29;7.13;;;2.25;;
3321;SDS011;1673;51.388;7.086;2022-10-16T02:04:02;6.32;;;2.40;;
3321;SDS011;1673;51.388;7.086;2022-10-16T02:06:33;4.82;;;2.30;;
3321;SDS011;1673;51.388;7.086;2022-10-16T02:09:03;5.78;;;2.70;;
3321;SDS011;1673;51.388;7.086;2022-10-16T02:11:33;7.30;;;2.42;;
3321;SDS011;1673;51.388;7.086;2022-10-16T02:14:06;5.55;;;2.53;;
3321;SDS011;1673;51.388;7.086;2022-10-16T02:16:37;5.32;;;2.70;;
3321;SDS011;1673;51.388;7.086;2022-10-16T02:19:10;4.82;;;2.75;;
3321;SDS011;1673;51.388;7.086;2022-10-16T02:21:42;5.35;;;2.78;;
3321;SDS011;1673;51.388;7.086;2022-10-16T02:24:14;5.20;;;2.40;;
3321;SDS011;1673;51.388;7.086;2022-10-16T02:26:49;3.88;;;2.28;;
3321;SDS011;1673;51.388;7.086;2022-10-16T02:29:25;3.90;;;2.50;;
3321;SDS011;1673;51.388;7.086;2022-10-16T02:31:56;5.80;;;2.00;;
3321;SDS011;1673;51.388;7.086;2022-10-16T02:34:27;6.85;;;2.10;;
3321;SDS011;1673;51.388;7.086;2022-10-16T02:36:58;6.60;;;2.30;;
3321;SDS011;1673;51.388;7.086;2022-10-16T02:39:28;3.97;;;1.95;;
3321;SDS011;1673;51.388;7.086;2022-10-16T02:41:58;7.82;;;2.20;;
3321;SDS011;1673;51.388;7.086;2022-10-16T02:44:30;4.45;;;2.10;;
3321;SDS011;1673;51.388;7.086;2022-10-16T02:47:00;6.57;;;2.13;;
3321;SDS011;1673;51.388;7.086;2022-10-16T02:49:30;7.38;;;2.05;;
3321;SDS011;1673;51.388;7.086;2022-10-16T02:51:59;4.33;;;2.07;;
3321;SDS011;1673;51.388;7.086;2022-10-16T02:54:29;3.00;;;1.90;;
3321;SDS011;1673;51.388;7.086;2022-10-16T02:56:59;5.70;;;2.10;;
3321;SDS011;1673;51.388;7.086;2022-10-16T02:59:31;3.00;;;1.60;;
3321;SDS011;1673;51.388;7.086;2022-10-16T03:02:00;3.58;;;1.88;;
3321;SDS011;1673;51.388;7.086;2022-10-16T03:04:30;3.63;;;1.80;;
3321;SDS011;1673;51.388;7.086;2022-10-16T03:07:00;4.03;;;2.00;;
3321;SDS011;1673;51.388;7.086;2022-10-16T03:09:29;3.85;;;2.00;;
3321;SDS011;1673;51.388;7.086;2022-10-16T03:11:59;4.10;;;1.80;;
3321;SDS011;1673;51.388;7.086;2022-10-16T03:14:31;3.70;;;1.95;;
3321;SDS011;1673;51.388;7.086;2022-10-16T03:17:01;3.83;;;1.65;;
3321;SDS011;1673;51.388;7.086;2022-10-16T03:19:30;5.80;;;1.90;;
3321;SDS011;1673;51.388;7.086;2022-10-16T03:22:01;3.60;;;1.92;;
3321;SDS011;1673;51.388;7.086;2022-10-16T03:24:30;4.97;;;2.20;;
3321;SDS011;1673;51.388;7.086;2022-10-16T03:27:00;2.97;;;2.00;;
3321;SDS011;1673;51.388;7.086;2022-10-16T03:29:32;3.22;;;1.80;;
3321;SDS011;1673;51.388;7.086;2022-10-16T03:32:02;3.80;;;1.90;;
3321;SDS011;1673;51.388;7.086;2022-10-16T03:34:32;5.45;;;1.65;;
3321;SDS011;1673;51.388;7.086;2022-10-16T03:37:01;4.25;;;1.80;;
3321;SDS011;1673;51.388;7.086;2022-10-16T03:39:31;2.92;;;1.70;;
3321;SDS011;1673;51.388;7.086;2022-10-16T03:42:00;4.70;;;2.10;;
3321;SDS011;1673;51.388;7.086;2022-10-16T03:44:33;3.67;;;1.77;;
3321;SDS011;1673;51.388;7.086;2022-10-16T03:47:02;4.68;;;1.80;;
3321;SDS011;1673;51.388;7.086;2022-10-16T03:49:32;3.50;;;1.90;;
3321;SDS011;1673;51.388;7.086;2022-10-16T03:52:01;3.00;;;1.90;;
3321;SDS011;1673;51.388;7.086;2022-10-16T03:54:31;5.55;;;2.13;;
3321;SDS011;1673;51.388;7.086;2022-10-16T03:57:01;4.05;;;1.90;;
3321;SDS011;1673;51.388;7.086;2022-10-16T03:59:33;3.65;;;1.90;;
3321;SDS011;1673;51.388;7.086;2022-10-16T04:02:02;4.28;;;2.20;;
3321;SDS011;1673;51.388;7.086;2022-10-16T04:04:32;5.40;;;2.10;;
3321;SDS011;1673;51.388;7.086;2022-10-16T04:07:01;4.63;;;1.42;;
3321;SDS011;1673;51.388;7.086;2022-10-16T04:09:31;3.10;;;1.80;;
3321;SDS011;1673;51.388;7.086;2022-10-16T04:12:01;4.75;;;1.65;;
3321;SDS011;1673;51.388;7.086;2022-10-16T04:14:33;3.78;;;1.80;;
3321;SDS011;1673;51.388;7.086;2022-10-16T04:17:02;3.45;;;1.77;;
3321;SDS011;1673;51.388;7.086;2022-10-16T04:19:32;3.23;;;1.60;;
3321;SDS011;1673;51.388;7.086;2022-10-16T04:22:01;5.60;;;1.85;;
3321;SDS011;1673;51.388;7.086;2022-10-16T04:24:31;4.60;;;2.08;;
3321;SDS011;1673;51.388;7.086;2022-10-16T04:27:01;4.90;;;1.87;;
3321;SDS011;1673;51.388;7.086;2022-10-16T04:29:33;6.00;;;2.33;;
3321;SDS011;1673;51.388;7.086;2022-10-16T04:32:02;3.15;;;1.80;;
3321;SDS011;1673;51.388;7.086;2022-10-16T04:34:32;2.80;;;1.90;;
3321;SDS011;1673;51.388;7.086;2022-10-16T04:37:02;4.05;;;2.00;;
3321;SDS011;1673;51.388;7.086;2022-10-16T04:39:31;4.90;;;1.70;;
3321;SDS011;1673;51.388;7.086;2022-10-16T04:42:01;4.53;;;1.73;;
3321;SDS011;1673;51.388;7.086;2022-10-16T04:44:33;4.00;;;2.50;;
3321;SDS011;1673;51.388;7.086;2022-10-16T04:47:02;3.08;;;1.58;;
3321;SDS011;1673;51.388;7.086;2022-10-16T04:49:32;3.50;;;1.90;;
3321;SDS011;1673;51.388;7.086;2022-10-16T04:52:02;3.90;;;1.90;;
3321;SDS011;1673;51.388;7.086;2022-10-16T04:54:32;6.25;;;1.90;;
3321;SDS011;1673;51.388;7.086;2022-10-16T04:57:02;3.45;;;1.98;;
3321;SDS011;1673;51.388;7.086;2022-10-16T04:59:35;6.40;;;2.00;;
3321;SDS011;1673;51.388;7.086;2022-10-16T05:02:04;8.75;;;1.80;;
3321;SDS011;1673;51.388;7.086;2022-10-16T05:04:34;3.53;;;1.97;;
3321;SDS011;1673;51.388;7.086;2022-10-16T05:07:03;3.00;;;1.90;;
3321;SDS011;1673;51.388;7.086;2022-10-16T05:09:33;3.28;;;1.80;;
3321;SDS011;1673;51.388;7.086;2022-10-16T05:12:02;6.70;;;1.67;;
3321;SDS011;1673;51.388;7.086;2022-10-16T05:14:35;2.80;;;1.60;;
3321;SDS011;1673;51.388;7.086;2022-10-16T05:17:04;2.83;;;1.80;;
3321;SDS011;1673;51.388;7.086;2022-10-16T05:19:34;4.53;;;1.90;;
3321;SDS011;1673;51.388;7.086;2022-10-16T05:22:03;5.70;;;2.00;;
3321;SDS011;1673;51.388;7.086;2022-10-16T05:24:34;2.80;;;1.50;;
3321;SDS011;1673;51.388;7.086;2022-10-16T05:27:04;4.15;;;1.95;;
3321;SDS011;1673;51.388;7.086;2022-10-16T05:29:36;5.40;;;2.20;;
3321;SDS011;1673;51.388;7.086;2022-10-16T05:32:05;4.77;;;1.90;;
3321;SDS011;1673;51.388;7.086;2022-10-16T05:34:35;3.30;;;1.80;;
3321;SDS011;1673;51.388;7.086;2022-10-16T05:37:05;5.53;;;2.10;;
3321;SDS011;1673;51.388;7.086;2022-10-16T05:39:34;7.90;;;1.80;;
3321;SDS011;1673;51.388;7.086;2022-10-16T05:42:04;8.00;;;2.30;;
3321;SDS011;1673;51.388;7.086;2022-10-16T05:44:36;4.37;;;2.00;;
3321;SDS011;1673;51.388;7.086;2022-10-16T05:47:06;3.67;;;2.08;;
3321;SDS011;1673;51.388;7.086;2022-10-16T05:49:37;3.50;;;2.22;;
3321;SDS011;1673;51.388;7.086;2022-10-16T05:52:06;6.88;;;2.50;;
3321;SDS011;1673;51.388;7.086;2022-10-16T05:54:36;5.00;;;2.00;;
3321;SDS011;1673;51.388;7.086;2022-10-16T05:57:06;4.20;;;2.30;;
3321;SDS011;1673;51.388;7.086;2022-10-16T05:59:38;3.17;;;1.85;;
3321;SDS011;1673;51.388;7.086;2022-10-16T06:02:08;4.22;;;2.47;;
3321;SDS011;1673;51.388;7.086;2022-10-16T06:04:39;6.00;;;2.20;;
3321;SDS011;1673;51.388;7.086;2022-10-16T06:07:09;6.32;;;2.20;;
3321;SDS011;1673;51.388;7.086;2022-10-16T06:09:38;4.50;;;2.20;;
3321;SDS011;1673;51.388;7.086;2022-10-16T06:12:08;6.10;;;2.30;;
3321;SDS011;1673;51.388;7.086;2022-10-16T06:14:40;2.70;;;2.00;;
3321;SDS011;1673;51.388;7.086;2022-10-16T06:17:30;5.05;;;2.70;;
3321;SDS011;1673;51.388;7.086;2022-10-16T06:19:59;3.85;;;2.30;;
3321;SDS011;1673;51.388;7.086;2022-10-16T06:22:29;9.07;;;2.53;;
3321;SDS011;1673;51.388;7.086;2022-10-16T06:24:58;6.05;;;2.30;;
3321;SDS011;1673;51.388;7.086;2022-10-16T06:27:28;3.70;;;2.30;;
3321;SDS011;1673;51.388;7.086;2022-10-16T06:30:00;4.40;;;2.40;;
3321;SDS011;1673;51.388;7.086;2022-10-16T06:32:30;10.90;;;2.53;;
3321;SDS011;1673;51.388;7.086;2022-10-16T06:34:59;5.30;;;2.30;;
3321;SDS011;1673;51.388;7.086;2022-10-16T06:37:29;3.90;;;2.40;;
3321;SDS011;1673;51.388;7.086;2022-10-16T06:39:59;7.03;;;2.93;;
3321;SDS011;1673;51.388;7.086;2022-10-16T06:42:30;5.30;;;2.30;;
3321;SDS011;1673;51.388;7.086;2022-10-16T06:45:02;5.43;;;2.30;;
3321;SDS011;1673;51.388;7.086;2022-10-16T06:47:32;4.40;;;2.80;;
3321;SDS011;1673;51.388;7.086;2022-10-16T06:50:02;4.65;;;2.42;;
3321;SDS011;1673;51.388;7.086;2022-10-16T06:52:33;5.82;;;2.10;;
3321;SDS011;1673;51.388;7.086;2022-10-16T06:55:03;4.10;;;2.30;;
3321;SDS011;1673;51.388;7.086;2022-10-16T06:57:33;6.53;;;2.30;;
3321;SDS011;1673;51.388;7.086;2022-10-16T07:00:06;7.25;;;2.20;;
3321;SDS011;1673;51.388;7.086;2022-10-16T07:02:37;5.70;;;2.30;;
3321;SDS011;1673;51.388;7.086;2022-10-16T07:05:06;4.90;;;2.50;;
3321;SDS011;1673;51.388;7.086;2022-10-16T07:07:36;5.10;;;2.50;;
3321;SDS011;1673;51.388;7.086;2022-10-16T07:10:06;5.97;;;2.20;;
3321;SDS011;1673;51.388;7.086;2022-10-16T07:12:37;5.53;;;2.30;;
3321;SDS011;1673;51.388;7.086;2022-10-16T07:15:09;5.60;;;2.40;;
3321;SDS011;1673;51.388;7.086;2022-10-16T07:17:39;5.10;;;2.63;;
3321;SDS011;1673;51.388;7.086;2022-10-16T07:20:09;7.30;;;2.30;;
3321;SDS011;1673;51.388;7.086;2022-10-16T07:22:39;4.88;;;2.03;;
3321;SDS011;1673;51.388;7.086;2022-10-16T07:25:09;4.20;;;2.20;;
3321;SDS011;1673;51.388;7.086;2022-10-16T07:27:39;8.20;;;2.55;;
3321;SDS011;1673;51.388;7.086;2022-10-16T07:30:11;6.10;;;2.30;;
3321;SDS011;1673;51.388;7.086;2022-10-16T07:32:41;5.18;;;2.17;;
3321;SDS011;1673;51.388;7.086;2022-10-16T07:35:10;3.58;;;2.00;;
3321;SDS011;1673;51.388;7.086;2022-10-16T07:37:43;5.72;;;2.40;;
3321;SDS011;1673;51.388;7.086;2022-10-16T07:40:13;6.33;;;2.50;;
3321;SDS011;1673;51.388;7.086;2022-10-16T07:42:43;4.05;;;2.20;;
3321;SDS011;1673;51.388;7.086;2022-10-16T07:45:15;5.55;;;2.00;;
3321;SDS011;1673;51.388;7.086;2022-10-16T07:47:45;3.45;;;2.20;;
3321;SDS011;1673;51.388;7.086;2022-10-16T07:50:14;4.30;;;2.00;;
3321;SDS011;1673;51.388;7.086;2022-10-16T07:52:44;4.40;;;2.28;;
3321;SDS011;1673;51.388;7.086;2022-10-16T07:55:13;4.95;;;2.38;;
3321;SDS011;1673;51.388;7.086;2022-10-16T07:57:43;3.50;;;2.37;;
3321;SDS011;1673;51.388;7.086;2022-10-16T08:00:15;4.65;;;2.15;;
3321;SDS011;1673;51.388;7.086;2022-10-16T08:02:45;5.45;;;2.60;;
3321;SDS011;1673;51.388;7.086;2022-10-16T08:05:14;5.50;;;2.55;;
3321;SDS011;1673;51.388;7.086;2022-10-16T08:07:47;7.33;;;2.43;;
3321;SDS011;1673;51.388;7.086;2022-10-16T08:10:18;5.40;;;2.40;;
3321;SDS011;1673;51.388;7.086;2022-10-16T08:12:48;4.30;;;2.58;;
3321;SDS011;1673;51.388;7.086;2022-10-16T08:15:21;6.60;;;2.80;;
3321;SDS011;1673;51.388;7.086;2022-10-16T08:17:54;6.77;;;2.50;;
3321;SDS011;1673;51.388;7.086;2022-10-16T08:20:25;7.55;;;2.50;;
3321;SDS011;1673;51.388;7.086;2022-10-16T08:22:55;11.93;;;2.40;;
3321;SDS011;1673;51.388;7.086;2022-10-16T08:25:25;3.95;;;2.20;;
3321;SDS011;1673;51.388;7.086;2022-10-16T08:27:55;4.00;;;2.30;;
3321;SDS011;1673;51.388;7.086;2022-10-16T08:30:27;4.40;;;2.30;;
3321;SDS011;1673;51.388;7.086;2022-10-16T08:32:57;7.32;;;2.88;;
3321;SDS011;1673;51.388;7.086;2022-10-16T08:35:27;8.43;;;2.10;;
3321;SDS011;1673;51.388;7.086;2022-10-16T08:37:57;3.90;;;2.53;;
3321;SDS011;1673;51.388;7.086;2022-10-16T08:40:27;3.90;;;2.15;;
3321;SDS011;1673;51.388;7.086;2022-10-16T08:43:12;4.82;;;1.98;;
3321;SDS011;1673;51.388;7.086;2022-10-16T08:46:02;3.72;;;1.88;;
3321;SDS011;1673;51.388;7.086;2022-10-16T08:48:40;5.18;;;2.10;;
3321;SDS011;1673;51.388;7.086;2022-10-16T08:51:15;6.93;;;1.85;;
3321;SDS011;1673;51.388;7.086;2022-10-16T08:53:49;3.40;;;1.70;;
3321;SDS011;1673;51.388;7.086;2022-10-16T08:56:22;5.90;;;1.83;;
3321;SDS011;1673;51.388;7.086;2022-10-16T08:58:52;11.18;;;1.80;;
3321;SDS011;1673;51.388;7.086;2022-10-16T09:01:32;4.55;;;1.80;;
3321;SDS011;1673;51.388;7.086;2022-10-16T09:07:06;5.03;;;2.03;;
3321;SDS011;1673;51.388;7.086;2022-10-16T09:09:43;4.78;;;1.67;;
3321;SDS011;1673;51.388;7.086;2022-10-16T09:12:20;5.27;;;1.40;;
3321;SDS011;1673;51.388;7.086;2022-10-16T09:14:57;5.22;;;1.92;;
3321;SDS011;1673;51.388;7.086;2022-10-16T09:17:36;4.90;;;1.60;;
3321;SDS011;1673;51.388;7.086;2022-10-16T09:20:16;5.60;;;1.80;;
3321;SDS011;1673;51.388;7.086;2022-10-16T09:23:04;5.00;;;1.80;;
3321;SDS011;1673;51.388;7.086;2022-10-16T09:25:39;5.97;;;1.70;;
3321;SDS011;1673;51.388;7.086;2022-10-16T09:28:10;5.38;;;1.73;;
3321;SDS011;1673;51.388;7.086;2022-10-16T09:30:40;6.57;;;1.70;;
3321;SDS011;1673;51.388;7.086;2022-10-16T09:33:12;4.00;;;1.70;;
3321;SDS011;1673;51.388;7.086;2022-10-16T09:35:43;3.28;;;1.40;;
3321;SDS011;1673;51.388;7.086;2022-10-16T09:38:21;3.80;;;1.40;;
3321;SDS011;1673;51.388;7.086;2022-10-16T09:40:52;6.20;;;1.50;;
3321;SDS011;1673;51.388;7.086;2022-10-16T09:43:30;4.20;;;1.42;;
3321;SDS011;1673;51.388;7.086;2022-10-16T09:46:04;3.20;;;1.30;;
3321;SDS011;1673;51.388;7.086;2022-10-16T09:48:39;5.22;;;1.50;;
3321;SDS011;1673;51.388;7.086;2022-10-16T09:51:16;6.50;;;1.70;;
3321;SDS011;1673;51.388;7.086;2022-10-16T09:53:48;5.25;;;1.42;;
3321;SDS011;1673;51.388;7.086;2022-10-16T09:56:38;5.37;;;1.37;;
3321;SDS011;1673;51.388;7.086;2022-10-16T09:59:08;3.58;;;1.40;;
3321;SDS011;1673;51.388;7.086;2022-10-16T10:01:41;4.03;;;1.30;;
3321;SDS011;1673;51.388;7.086;2022-10-16T10:04:17;4.82;;;1.30;;
3321;SDS011;1673;51.388;7.086;2022-10-16T10:06:47;4.30;;;1.40;;
3321;SDS011;1673;51.388;7.086;2022-10-16T10:09:19;5.00;;;1.50;;
3321;SDS011;1673;51.388;7.086;2022-10-16T10:11:51;4.90;;;1.50;;
3321;SDS011;1673;51.388;7.086;2022-10-16T10:14:25;4.05;;;1.33;;
3321;SDS011;1673;51.388;7.086;2022-10-16T10:17:10;5.50;;;1.40;;
3321;SDS011;1673;51.388;7.086;2022-10-16T10:19:46;5.43;;;1.48;;
3321;SDS011;1673;51.388;7.086;2022-10-16T10:22:18;3.77;;;1.03;;
3321;SDS011;1673;51.388;7.086;2022-10-16T10:24:55;4.70;;;1.30;;
3321;SDS011;1673;51.388;7.086;2022-10-16T10:27:27;3.00;;;1.00;;
3321;SDS011;1673;51.388;7.086;2022-10-16T10:30:02;3.38;;;1.20;;
3321;SDS011;1673;51.388;7.086;2022-10-16T10:32:38;4.28;;;1.20;;
3321;SDS011;1673;51.388;7.086;2022-10-16T10:35:18;4.55;;;1.33;;
3321;SDS011;1673;51.388;7.086;2022-10-16T10:37:59;4.70;;;1.20;;
3321;SDS011;1673;51.388;7.086;2022-10-16T10:40:37;7.38;;;1.73;;
3321;SDS011;1673;51.388;7.086;2022-10-16T10:43:11;3.20;;;1.38;;
3321;SDS011;1673;51.388;7.086;2022-10-16T10:45:48;3.50;;;1.00;;
3321;SDS011;1673;51.388;7.086;2022-10-16T10:48:27;6.60;;;1.10;;
3321;SDS011;1673;51.388;7.086;2022-10-16T10:51:19;4.13;;;1.25;;
3321;SDS011;1673;51.388;7.086;2022-10-16T10:53:53;5.70;;;1.20;;
3321;SDS011;1673;51.388;7.086;2022-10-16T10:56:30;4.00;;;1.10;;
3321;SDS011;1673;51.388;7.086;2022-10-16T10:59:20;6.00;;;1.40;;
3321;SDS011;1673;51.388;7.086;2022-10-16T11:02:09;3.00;;;1.00;;
3321;SDS011;1673;51.388;7.086;2022-10-16T11:04:58;4.30;;;1.20;;
3321;SDS011;1673;51.388;7.086;2022-10-16T11:07:49;5.72;;;1.10;;
3321;SDS011;1673;51.388;7.086;2022-10-16T11:10:21;3.40;;;1.15;;
3321;SDS011;1673;51.388;7.086;2022-10-16T11:12:53;5.05;;;1.10;;
3321;SDS011;1673;51.388;7.086;2022-10-16T11:15:25;4.30;;;1.00;;
3321;SDS011;1673;51.388;7.086;2022-10-16T11:17:58;2.78;;;1.20;;
3321;SDS011;1673;51.388;7.086;2022-10-16T11:20:33;3.50;;;1.00;;
3321;SDS011;1673;51.388;7.086;2022-10-16T11:23:09;5.20;;;1.02;;
3321;SDS011;1673;51.388;7.086;2022-10-16T11:25:41;3.30;;;1.30;;
3321;SDS011;1673;51.388;7.086;2022-10-16T11:28:13;4.10;;;0.90;;
3321;SDS011;1673;51.388;7.086;2022-10-16T11:30:44;3.70;;;1.00;;
3321;SDS011;1673;51.388;7.086;2022-10-16T11:33:24;3.65;;;1.20;;
3321;SDS011;1673;51.388;7.086;2022-10-16T11:36:00;4.32;;;1.42;;
3321;SDS011;1673;51.388;7.086;2022-10-16T11:38:37;3.13;;;1.15;;
3321;SDS011;1673;51.388;7.086;2022-10-16T11:41:13;5.25;;;1.00;;
3321;SDS011;1673;51.388;7.086;2022-10-16T11:43:49;4.72;;;1.30;;
3321;SDS011;1673;51.388;7.086;2022-10-16T11:46:25;5.82;;;1.10;;
3321;SDS011;1673;51.388;7.086;2022-10-16T11:48:57;3.60;;;1.10;;
3321;SDS011;1673;51.388;7.086;2022-10-16T11:51:32;10.30;;;1.30;;
3321;SDS011;1673;51.388;7.086;2022-10-16T11:54:08;4.45;;;1.40;;
3321;SDS011;1673;51.388;7.086;2022-10-16T11:56:44;3.50;;;0.90;;
3321;SDS011;1673;51.388;7.086;2022-10-16T11:59:17;4.07;;;1.30;;
3321;SDS011;1673;51.388;7.086;2022-10-16T12:01:51;4.65;;;1.00;;
3321;SDS011;1673;51.388;7.086;2022-10-16T12:04:24;5.82;;;1.30;;
3321;SDS011;1673;51.388;7.086;2022-10-16T12:07:01;2.70;;;1.00;;
3321;SDS011;1673;51.388;7.086;2022-10-16T12:09:37;2.85;;;1.00;;
3321;SDS011;1673;51.388;7.086;2022-10-16T12:15:01;6.30;;;1.20;;
3321;SDS011;1673;51.388;7.086;2022-10-16T12:17:52;3.33;;;1.25;;
3321;SDS011;1673;51.388;7.086;2022-10-16T12:20:24;3.97;;;1.00;;
3321;SDS011;1673;51.388;7.086;2022-10-16T12:22:57;6.07;;;1.10;;
3321;SDS011;1673;51.388;7.086;2022-10-16T12:25:31;3.97;;;1.30;;
3321;SDS011;1673;51.388;7.086;2022-10-16T12:28:03;5.03;;;1.08;;
3321;SDS011;1673;51.388;7.086;2022-10-16T12:30:35;4.97;;;1.45;;
3321;SDS011;1673;51.388;7.086;2022-10-16T12:33:05;7.03;;;1.20;;
3321;SDS011;1673;51.388;7.086;2022-10-16T12:35:45;4.20;;;1.10;;
3321;SDS011;1673;51.388;7.086;2022-10-16T12:38:16;3.33;;;0.80;;
3321;SDS011;1673;51.388;7.086;2022-10-16T12:40:54;3.90;;;0.90;;
3321;SDS011;1673;51.388;7.086;2022-10-16T12:43:38;3.45;;;1.00;;
3321;SDS011;1673;51.388;7.086;2022-10-16T12:46:22;6.60;;;1.10;;
3321;SDS011;1673;51.388;7.086;2022-10-16T12:49:04;5.88;;;1.40;;
3321;SDS011;1673;51.388;7.086;2022-10-16T12:51:36;5.72;;;1.20;;
3321;SDS011;1673;51.388;7.086;2022-10-16T12:54:12;4.70;;;1.17;;
3321;SDS011;1673;51.388;7.086;2022-10-16T12:56:49;4.40;;;1.30;;
3321;SDS011;1673;51.388;7.086;2022-10-16T12:59:34;4.50;;;1.00;;
3321;SDS011;1673;51.388;7.086;2022-10-16T13:02:20;6.38;;;1.30;;
3321;SDS011;1673;51.388;7.086;2022-10-16T13:05:17;2.40;;;1.00;;
3321;SDS011;1673;51.388;7.086;2022-10-16T13:07:55;3.65;;;1.20;;
3321;SDS011;1673;51.388;7.086;2022-10-16T13:10:32;2.80;;;0.90;;
3321;SDS011;1673;51.388;7.086;2022-10-16T13:13:12;5.20;;;1.20;;
3321;SDS011;1673;51.388;7.086;2022-10-16T13:15:51;2.60;;;1.20;;
3321;SDS011;1673;51.388;7.086;2022-10-16T13:18:29;2.57;;;0.90;;
3321;SDS011;1673;51.388;7.086;2022-10-16T13:21:07;4.32;;;1.00;;
3321;SDS011;1673;51.388;7.086;2022-10-16T13:23:43;4.05;;;1.20;;
3321;SDS011;1673;51.388;7.086;2022-10-16T13:26:20;5.13;;;0.95;;
3321;SDS011;1673;51.388;7.086;2022-10-16T13:29:00;6.10;;;0.90;;
3321;SDS011;1673;51.388;7.086;2022-10-16T13:31:31;5.47;;;1.27;;
3321;SDS011;1673;51.388;7.086;2022-10-16T13:34:01;4.78;;;1.00;;
3321;SDS011;1673;51.388;7.086;2022-10-16T13:36:34;3.38;;;1.00;;
3321;SDS011;1673;51.388;7.086;2022-10-16T13:39:09;2.40;;;1.10;;
3321;SDS011;1673;51.388;7.086;2022-10-16T13:41:40;3.42;;;1.10;;
3321;SDS011;1673;51.388;7.086;2022-10-16T13:44:17;4.60;;;1.00;;
3321;SDS011;1673;51.388;7.086;2022-10-16T13:46:57;4.90;;;1.10;;
3321;SDS011;1673;51.388;7.086;2022-10-16T13:49:28;3.22;;;1.00;;
3321;SDS011;1673;51.388;7.086;2022-10-16T13:51:59;2.20;;;0.90;;
3321;SDS011;1673;51.388;7.086;2022-10-16T13:54:28;5.30;;;1.40;;
3321;SDS011;1673;51.388;7.086;2022-10-16T13:57:04;3.92;;;1.30;;
3321;SDS011;1673;51.388;7.086;2022-10-16T13:59:55;3.30;;;1.00;;
3321;SDS011;1673;51.388;7.086;2022-10-16T14:02:25;3.70;;;1.00;;
3321;SDS011;1673;51.388;7.086;2022-10-16T14:04:56;4.05;;;1.20;;
3321;SDS011;1673;51.388;7.086;2022-10-16T14:07:27;4.90;;;1.20;;
3321;SDS011;1673;51.388;7.086;2022-10-16T14:09:59;3.50;;;1.20;;
3321;SDS011;1673;51.388;7.086;2022-10-16T14:12:33;3.15;;;1.02;;
3321;SDS011;1673;51.388;7.086;2022-10-16T14:15:15;2.90;;;1.20;;
3321;SDS011;1673;51.388;7.086;2022-10-16T14:17:47;4.30;;;1.30;;
3321;SDS011;1673;51.388;7.086;2022-10-16T14:20:20;4.50;;;1.00;;
3321;SDS011;1673;51.388;7.086;2022-10-16T14:22:57;7.00;;;1.10;;
3321;SDS011;1673;51.388;7.086;2022-10-16T14:25:29;8.55;;;1.40;;
3321;SDS011;1673;51.388;7.086;2022-10-16T14:28:01;3.60;;;1.40;;
3321;SDS011;1673;51.388;7.086;2022-10-16T14:30:35;2.90;;;1.00;;
3321;SDS011;1673;51.388;7.086;2022-10-16T14:33:18;3.60;;;1.20;;
3321;SDS011;1673;51.388;7.086;2022-10-16T14:36:00;3.42;;;0.98;;
3321;SDS011;1673;51.388;7.086;2022-10-16T14:38:32;2.40;;;1.00;;
3321;SDS011;1673;51.388;7.086;2022-10-16T14:41:01;4.50;;;1.10;;
3321;SDS011;1673;51.388;7.086;2022-10-16T14:43:33;4.50;;;1.60;;
3321;SDS011;1673;51.388;7.086;2022-10-16T14:46:08;3.00;;;1.10;;
3321;SDS011;1673;51.388;7.086;2022-10-16T14:48:40;4.50;;;1.30;;
3321;SDS011;1673;51.388;7.086;2022-10-16T14:51:11;5.40;;;1.10;;
3321;SDS011;1673;51.388;7.086;2022-10-16T14:53:43;5.82;;;1.92;;
3321;SDS011;1673;51.388;7.086;2022-10-16T14:56:14;4.07;;;1.27;;
3321;SDS011;1673;51.388;7.086;2022-10-16T14:58:46;3.50;;;1.60;;
3321;SDS011;1673;51.388;7.086;2022-10-16T15:01:18;4.07;;;1.23;;
3321;SDS011;1673;51.388;7.086;2022-10-16T15:03:48;2.70;;;1.10;;
3321;SDS011;1673;51.388;7.086;2022-10-16T15:06:18;4.65;;;1.33;;
3321;SDS011;1673;51.388;7.086;2022-10-16T15:08:48;4.80;;;1.58;;
3321;SDS011;1673;51.388;7.086;2022-10-16T15:11:18;3.20;;;1.10;;
3321;SDS011;1673;51.388;7.086;2022-10-16T15:13:48;5.63;;;1.60;;
3321;SDS011;1673;51.388;7.086;2022-10-16T15:16:20;3.17;;;1.60;;
3321;SDS011;1673;51.388;7.086;2022-10-16T15:18:50;5.00;;;1.20;;
3321;SDS011;1673;51.388;7.086;2022-10-16T15:21:21;3.90;;;1.40;;
3321;SDS011;1673;51.388;7.086;2022-10-16T15:23:52;4.85;;;1.30;;
3321;SDS011;1673;51.388;7.086;2022-10-16T15:26:23;5.55;;;1.70;;
3321;SDS011;1673;51.388;7.086;2022-10-16T15:28:53;4.40;;;2.00;;
3321;SDS011;1673;51.388;7.086;2022-10-16T15:31:25;4.38;;;1.52;;
3321;SDS011;1673;51.388;7.086;2022-10-16T15:33:55;4.53;;;1.40;;
3321;SDS011;1673;51.388;7.086;2022-10-16T15:36:30;3.92;;;1.52;;
3321;SDS011;1673;51.388;7.086;2022-10-16T15:39:03;8.15;;;1.77;;
3321;SDS011;1673;51.388;7.086;2022-10-16T15:41:33;5.53;;;1.95;;
3321;SDS011;1673;51.388;7.086;2022-10-16T15:44:02;5.20;;;2.70;;
3321;SDS011;1673;51.388;7.086;2022-10-16T15:46:35;5.32;;;3.00;;
3321;SDS011;1673;51.388;7.086;2022-10-16T15:49:04;7.18;;;1.88;;
3321;SDS011;1673;51.388;7.086;2022-10-16T15:51:34;3.53;;;1.43;;
3321;SDS011;1673;51.388;7.086;2022-10-16T15:54:07;4.78;;;1.70;;
3321;SDS011;1673;51.388;7.086;2022-10-16T15:56:37;9.27;;;2.13;;